sensor_id;sensor_type;location;lat;lon;timestamp;temperature;humidity
14049;DHT22;7099;53.922;10.728;2023-06-22T00:03:57;18.30;68.30
14049;DHT22;7099;53.922;10.728;2023-06-22T00:08:03;18.30;69.00
14049;DHT22;7099;53.922;10.728;2023-06-22T00:12:10;18.20;69.20
14049;DHT22;7099;53.922;10.728;2023-06-22T00:16:15;18.10;69.10
14049;DHT22;7099;53.922;10.728;2023-06-22T00:20:20;18.00;69.10
14049;DHT22;7099;53.922;10.728;2023-06-22T00:24:26;18.00;68.80
14049;DHT22;7099;53.922;10.728;2023-06-22T00:28:31;17.90;69.20
14049;DHT22;7099;53.922;10.728;2023-06-22T00:32:36;17.90;69.20
14049;DHT22;7099;53.922;10.728;2023-06-22T00:36:42;17.80;69.70
14049;DHT22;7099;53.922;10.728;2023-06-22T00:40:47;17.70;69.60
14049;DHT22;7099;53.922;10.728;2023-06-22T00:44:52;17.60;69.70
14049;DHT22;7099;53.922;10.728;2023-06-22T00:48:58;17.60;70.50
14049;DHT22;7099;53.922;10.728;2023-06-22T00:53:04;17.50;69.80
14049;DHT22;7099;53.922;10.728;2023-06-22T00:57:14;17.50;70.10
14049;DHT22;7099;53.922;10.728;2023-06-22T01:01:22;17.40;69.60
14049;DHT22;7099;53.922;10.728;2023-06-22T01:05:28;17.40;69.60
14049;DHT22;7099;53.922;10.728;2023-06-22T01:09:39;17.30;69.70
14049;DHT22;7099;53.922;10.728;2023-06-22T01:13:57;17.30;71.10
14049;DHT22;7099;53.922;10.728;2023-06-22T01:18:05;17.30;70.90
14049;DHT22;7099;53.922;10.728;2023-06-22T01:22:12;17.20;70.70
14049;DHT22;7099;53.922;10.728;2023-06-22T01:26:22;17.20;71.20
14049;DHT22;7099;53.922;10.728;2023-06-22T01:30:37;17.10;71.00
14049;DHT22;7099;53.922;10.728;2023-06-22T01:34:44;17.10;71.10
14049;DHT22;7099;53.922;10.728;2023-06-22T01:38:50;17.10;71.30
14049;DHT22;7099;53.922;10.728;2023-06-22T01:42:57;17.10;71.60
14049;DHT22;7099;53.922;10.728;2023-06-22T01:47:03;17.00;71.20
14049;DHT22;7099;53.922;10.728;2023-06-22T01:51:08;16.90;71.20
14049;DHT22;7099;53.922;10.728;2023-06-22T01:55:14;16.90;68.50
14049;DHT22;7099;53.922;10.728;2023-06-22T01:59:30;17.30;71.50
14049;DHT22;7099;53.922;10.728;2023-06-22T02:03:50;17.60;70.80
14049;DHT22;7099;53.922;10.728;2023-06-22T02:08:07;17.70;70.30
14049;DHT22;7099;53.922;10.728;2023-06-22T02:12:18;17.70;70.00
14049;DHT22;7099;53.922;10.728;2023-06-22T02:16:26;17.70;70.50
14049;DHT22;7099;53.922;10.728;2023-06-22T02:20:39;17.70;70.60
14049;DHT22;7099;53.922;10.728;2023-06-22T02:24:44;17.70;70.20
14049;DHT22;7099;53.922;10.728;2023-06-22T02:28:50;17.70;70.80
14049;DHT22;7099;53.922;10.728;2023-06-22T02:32:55;17.70;70.60
14049;DHT22;7099;53.922;10.728;2023-06-22T02:37:04;17.70;71.80
14049;DHT22;7099;53.922;10.728;2023-06-22T02:41:10;17.60;72.50
14049;DHT22;7099;53.922;10.728;2023-06-22T02:45:18;17.60;71.80
14049;DHT22;7099;53.922;10.728;2023-06-22T02:49:24;17.60;71.40
14049;DHT22;7099;53.922;10.728;2023-06-22T02:53:29;17.60;71.00
14049;DHT22;7099;53.922;10.728;2023-06-22T02:57:35;17.60;71.20
14049;DHT22;7099;53.922;10.728;2023-06-22T03:01:41;17.60;71.00
14049;DHT22;7099;53.922;10.728;2023-06-22T03:05:46;17.60;71.00
14049;DHT22;7099;53.922;10.728;2023-06-22T03:09:52;17.50;71.00
14049;DHT22;7099;53.922;10.728;2023-06-22T03:13:58;17.50;71.20
14049;DHT22;7099;53.922;10.728;2023-06-22T03:18:04;17.50;71.00
14049;DHT22;7099;53.922;10.728;2023-06-22T03:22:10;17.50;71.10
14049;DHT22;7099;53.922;10.728;2023-06-22T03:26:19;17.40;71.40
14049;DHT22;7099;53.922;10.728;2023-06-22T03:30:24;17.50;72.10
14049;DHT22;7099;53.922;10.728;2023-06-22T03:34:30;17.50;72.00
14049;DHT22;7099;53.922;10.728;2023-06-22T03:38:38;17.50;71.50
14049;DHT22;7099;53.922;10.728;2023-06-22T03:42:47;17.50;72.00
14049;DHT22;7099;53.922;10.728;2023-06-22T03:46:52;17.50;72.20
14049;DHT22;7099;53.922;10.728;2023-06-22T03:51:01;17.50;71.80
14049;DHT22;7099;53.922;10.728;2023-06-22T03:55:07;17.50;72.20
14049;DHT22;7099;53.922;10.728;2023-06-22T03:59:13;17.50;71.50
14049;DHT22;7099;53.922;10.728;2023-06-22T04:03:19;17.50;71.90
14049;DHT22;7099;53.922;10.728;2023-06-22T04:07:25;17.50;71.60
14049;DHT22;7099;53.922;10.728;2023-06-22T04:11:30;17.50;71.80
14049;DHT22;7099;53.922;10.728;2023-06-22T04:15:36;17.50;72.40
14049;DHT22;7099;53.922;10.728;2023-06-22T04:19:41;17.50;72.50
14049;DHT22;7099;53.922;10.728;2023-06-22T04:23:47;17.60;73.30
14049;DHT22;7099;53.922;10.728;2023-06-22T04:27:53;17.70;73.20
14049;DHT22;7099;53.922;10.728;2023-06-22T04:31:59;17.70;73.20
14049;DHT22;7099;53.922;10.728;2023-06-22T04:36:08;17.90;74.00
14049;DHT22;7099;53.922;10.728;2023-06-22T04:40:13;18.00;74.50
14049;DHT22;7099;53.922;10.728;2023-06-22T04:44:19;18.10;74.70
14049;DHT22;7099;53.922;10.728;2023-06-22T04:48:31;18.10;74.50
14049;DHT22;7099;53.922;10.728;2023-06-22T04:52:38;18.20;75.30
14049;DHT22;7099;53.922;10.728;2023-06-22T04:56:43;18.30;74.30
14049;DHT22;7099;53.922;10.728;2023-06-22T05:00:51;18.30;73.90
14049;DHT22;7099;53.922;10.728;2023-06-22T05:04:57;18.40;74.90
14049;DHT22;7099;53.922;10.728;2023-06-22T05:09:02;18.50;75.40
14049;DHT22;7099;53.922;10.728;2023-06-22T05:13:08;18.60;74.30
14049;DHT22;7099;53.922;10.728;2023-06-22T05:17:14;18.80;73.70
14049;DHT22;7099;53.922;10.728;2023-06-22T05:21:25;18.90;72.70
14049;DHT22;7099;53.922;10.728;2023-06-22T05:25:31;19.00;72.50
14049;DHT22;7099;53.922;10.728;2023-06-22T05:29:38;19.10;71.40
14049;DHT22;7099;53.922;10.728;2023-06-22T05:33:44;19.30;71.50
14049;DHT22;7099;53.922;10.728;2023-06-22T05:37:50;19.40;72.50
14049;DHT22;7099;53.922;10.728;2023-06-22T05:41:56;19.50;73.10
14049;DHT22;7099;53.922;10.728;2023-06-22T05:46:03;19.20;73.20
14049;DHT22;7099;53.922;10.728;2023-06-22T05:50:09;19.20;72.80
14049;DHT22;7099;53.922;10.728;2023-06-22T05:54:32;19.20;73.20
14049;DHT22;7099;53.922;10.728;2023-06-22T05:58:38;19.20;73.30
14049;DHT22;7099;53.922;10.728;2023-06-22T06:02:43;19.30;72.30
14049;DHT22;7099;53.922;10.728;2023-06-22T06:06:49;19.40;71.60
14049;DHT22;7099;53.922;10.728;2023-06-22T06:10:55;19.50;71.10
14049;DHT22;7099;53.922;10.728;2023-06-22T06:15:02;19.70;72.00
14049;DHT22;7099;53.922;10.728;2023-06-22T06:19:08;19.80;71.00
14049;DHT22;7099;53.922;10.728;2023-06-22T06:23:14;20.00;70.30
14049;DHT22;7099;53.922;10.728;2023-06-22T06:27:19;20.20;69.20
14049;DHT22;7099;53.922;10.728;2023-06-22T06:31:25;20.40;69.00
14049;DHT22;7099;53.922;10.728;2023-06-22T06:35:33;20.60;68.70
14049;DHT22;7099;53.922;10.728;2023-06-22T06:39:39;20.80;68.30
14049;DHT22;7099;53.922;10.728;2023-06-22T06:43:47;21.00;68.00
14049;DHT22;7099;53.922;10.728;2023-06-22T06:47:53;21.10;67.50
14049;DHT22;7099;53.922;10.728;2023-06-22T06:51:59;21.30;66.80
14049;DHT22;7099;53.922;10.728;2023-06-22T06:56:05;21.40;66.00
14049;DHT22;7099;53.922;10.728;2023-06-22T07:00:12;21.60;66.70
14049;DHT22;7099;53.922;10.728;2023-06-22T07:04:19;21.70;67.00
14049;DHT22;7099;53.922;10.728;2023-06-22T07:08:25;21.80;67.10
14049;DHT22;7099;53.922;10.728;2023-06-22T07:12:30;21.90;66.00
14049;DHT22;7099;53.922;10.728;2023-06-22T07:16:35;22.10;65.60
14049;DHT22;7099;53.922;10.728;2023-06-22T07:20:41;22.20;64.50
14049;DHT22;7099;53.922;10.728;2023-06-22T07:24:46;22.40;63.20
14049;DHT22;7099;53.922;10.728;2023-06-22T07:28:52;22.60;63.20
14049;DHT22;7099;53.922;10.728;2023-06-22T07:32:58;22.70;62.50
14049;DHT22;7099;53.922;10.728;2023-06-22T07:37:08;22.80;63.30
14049;DHT22;7099;53.922;10.728;2023-06-22T07:41:14;23.00;61.60
14049;DHT22;7099;53.922;10.728;2023-06-22T07:45:20;23.10;60.50
14049;DHT22;7099;53.922;10.728;2023-06-22T07:49:25;23.20;60.00
14049;DHT22;7099;53.922;10.728;2023-06-22T07:53:32;23.40;60.40
14049;DHT22;7099;53.922;10.728;2023-06-22T07:57:38;23.60;59.90
14049;DHT22;7099;53.922;10.728;2023-06-22T08:01:44;23.80;58.70
14049;DHT22;7099;53.922;10.728;2023-06-22T08:05:49;24.10;58.20
14049;DHT22;7099;53.922;10.728;2023-06-22T08:09:55;24.30;56.20
14049;DHT22;7099;53.922;10.728;2023-06-22T08:14:00;24.40;56.10
14049;DHT22;7099;53.922;10.728;2023-06-22T08:18:06;24.50;55.20
14049;DHT22;7099;53.922;10.728;2023-06-22T08:22:11;24.70;55.10
14049;DHT22;7099;53.922;10.728;2023-06-22T08:26:17;24.90;56.00
14049;DHT22;7099;53.922;10.728;2023-06-22T08:30:22;25.10;54.80
14049;DHT22;7099;53.922;10.728;2023-06-22T08:34:28;25.20;54.80
14049;DHT22;7099;53.922;10.728;2023-06-22T08:38:34;25.40;53.30
14049;DHT22;7099;53.922;10.728;2023-06-22T08:42:42;25.60;52.80
14049;DHT22;7099;53.922;10.728;2023-06-22T08:46:47;25.80;52.30
14049;DHT22;7099;53.922;10.728;2023-06-22T08:50:56;25.90;51.60
14049;DHT22;7099;53.922;10.728;2023-06-22T08:55:01;26.00;50.90
14049;DHT22;7099;53.922;10.728;2023-06-22T08:59:07;26.10;51.70
14049;DHT22;7099;53.922;10.728;2023-06-22T09:03:13;26.20;51.20
14049;DHT22;7099;53.922;10.728;2023-06-22T09:07:18;26.40;52.50
14049;DHT22;7099;53.922;10.728;2023-06-22T09:11:27;26.50;51.70
14049;DHT22;7099;53.922;10.728;2023-06-22T09:15:33;26.70;51.10
14049;DHT22;7099;53.922;10.728;2023-06-22T09:19:48;26.80;50.40
14049;DHT22;7099;53.922;10.728;2023-06-22T09:23:54;26.90;49.60
14049;DHT22;7099;53.922;10.728;2023-06-22T09:27:59;27.00;48.80
14049;DHT22;7099;53.922;10.728;2023-06-22T09:32:05;27.20;49.10
14049;DHT22;7099;53.922;10.728;2023-06-22T09:36:11;27.30;47.70
14049;DHT22;7099;53.922;10.728;2023-06-22T09:40:17;27.30;47.30
14049;DHT22;7099;53.922;10.728;2023-06-22T09:44:22;27.30;47.10
14049;DHT22;7099;53.922;10.728;2023-06-22T09:48:28;27.40;47.00
14049;DHT22;7099;53.922;10.728;2023-06-22T09:52:37;27.40;47.30
14049;DHT22;7099;53.922;10.728;2023-06-22T09:56:46;27.60;47.40
14049;DHT22;7099;53.922;10.728;2023-06-22T10:00:51;27.90;46.50
14049;DHT22;7099;53.922;10.728;2023-06-22T10:04:58;27.90;46.10
14049;DHT22;7099;53.922;10.728;2023-06-22T10:09:04;28.00;46.60
14049;DHT22;7099;53.922;10.728;2023-06-22T10:13:10;28.20;46.10
14049;DHT22;7099;53.922;10.728;2023-06-22T10:17:16;28.30;45.10
14049;DHT22;7099;53.922;10.728;2023-06-22T10:21:22;28.30;45.20
14049;DHT22;7099;53.922;10.728;2023-06-22T10:25:27;28.50;44.80
14049;DHT22;7099;53.922;10.728;2023-06-22T10:29:33;28.60;44.80
14049;DHT22;7099;53.922;10.728;2023-06-22T10:33:39;28.70;45.60
14049;DHT22;7099;53.922;10.728;2023-06-22T10:37:47;28.90;44.60
14049;DHT22;7099;53.922;10.728;2023-06-22T10:41:53;28.90;44.80
14049;DHT22;7099;53.922;10.728;2023-06-22T10:45:58;29.00;44.50
14049;DHT22;7099;53.922;10.728;2023-06-22T10:50:04;29.20;44.00
14049;DHT22;7099;53.922;10.728;2023-06-22T10:54:11;29.40;43.40
14049;DHT22;7099;53.922;10.728;2023-06-22T10:58:19;29.40;43.70
14049;DHT22;7099;53.922;10.728;2023-06-22T11:02:24;29.40;43.50
14049;DHT22;7099;53.922;10.728;2023-06-22T11:06:30;29.50;44.00
14049;DHT22;7099;53.922;10.728;2023-06-22T11:10:35;29.60;43.50
14049;DHT22;7099;53.922;10.728;2023-06-22T11:14:41;29.70;43.20
14049;DHT22;7099;53.922;10.728;2023-06-22T11:18:46;29.80;43.40
14049;DHT22;7099;53.922;10.728;2023-06-22T11:22:52;30.00;42.70
14049;DHT22;7099;53.922;10.728;2023-06-22T11:26:57;29.90;42.80
14049;DHT22;7099;53.922;10.728;2023-06-22T11:31:04;30.00;42.40
14049;DHT22;7099;53.922;10.728;2023-06-22T11:35:29;30.10;42.10
14049;DHT22;7099;53.922;10.728;2023-06-22T11:39:35;30.10;42.10
14049;DHT22;7099;53.922;10.728;2023-06-22T11:43:51;30.20;41.70
14049;DHT22;7099;53.922;10.728;2023-06-22T11:47:57;30.30;41.50
14049;DHT22;7099;53.922;10.728;2023-06-22T11:52:03;30.30;41.10
14049;DHT22;7099;53.922;10.728;2023-06-22T11:56:08;30.40;41.50
14049;DHT22;7099;53.922;10.728;2023-06-22T12:00:15;30.40;41.20
14049;DHT22;7099;53.922;10.728;2023-06-22T12:04:22;30.50;41.60
14049;DHT22;7099;53.922;10.728;2023-06-22T12:08:28;30.60;40.90
14049;DHT22;7099;53.922;10.728;2023-06-22T12:12:33;30.70;41.00
14049;DHT22;7099;53.922;10.728;2023-06-22T12:16:39;30.70;41.60
14049;DHT22;7099;53.922;10.728;2023-06-22T12:20:44;30.80;40.80
14049;DHT22;7099;53.922;10.728;2023-06-22T12:24:50;30.90;40.80
14049;DHT22;7099;53.922;10.728;2023-06-22T12:28:55;30.90;40.50
14049;DHT22;7099;53.922;10.728;2023-06-22T12:33:01;30.90;40.60
14049;DHT22;7099;53.922;10.728;2023-06-22T12:37:06;31.00;40.40
14049;DHT22;7099;53.922;10.728;2023-06-22T12:41:12;31.00;40.40
14049;DHT22;7099;53.922;10.728;2023-06-22T12:45:17;30.90;40.40
14049;DHT22;7099;53.922;10.728;2023-06-22T12:49:24;31.10;40.80
14049;DHT22;7099;53.922;10.728;2023-06-22T12:53:29;31.10;39.90
14049;DHT22;7099;53.922;10.728;2023-06-22T12:57:35;30.90;40.30
14049;DHT22;7099;53.922;10.728;2023-06-22T13:01:41;30.90;40.20
14049;DHT22;7099;53.922;10.728;2023-06-22T13:05:50;30.80;40.40
14049;DHT22;7099;53.922;10.728;2023-06-22T13:09:57;31.00;40.40
14049;DHT22;7099;53.922;10.728;2023-06-22T13:14:03;31.10;40.30
14049;DHT22;7099;53.922;10.728;2023-06-22T13:18:11;31.30;40.40
14049;DHT22;7099;53.922;10.728;2023-06-22T13:22:31;31.20;40.10
14049;DHT22;7099;53.922;10.728;2023-06-22T13:26:37;31.10;39.10
14049;DHT22;7099;53.922;10.728;2023-06-22T13:30:43;30.70;40.00
14049;DHT22;7099;53.922;10.728;2023-06-22T13:34:52;30.80;40.20
14049;DHT22;7099;53.922;10.728;2023-06-22T13:38:58;30.90;39.60
14049;DHT22;7099;53.922;10.728;2023-06-22T13:43:04;31.00;38.90
14049;DHT22;7099;53.922;10.728;2023-06-22T13:47:10;30.70;38.60
14049;DHT22;7099;53.922;10.728;2023-06-22T13:51:15;30.70;38.90
14049;DHT22;7099;53.922;10.728;2023-06-22T13:55:22;30.60;38.70
14049;DHT22;7099;53.922;10.728;2023-06-22T13:59:28;30.60;38.50
14049;DHT22;7099;53.922;10.728;2023-06-22T14:03:42;30.70;38.20
14049;DHT22;7099;53.922;10.728;2023-06-22T14:07:50;30.60;38.00
14049;DHT22;7099;53.922;10.728;2023-06-22T14:11:56;30.70;38.70
14049;DHT22;7099;53.922;10.728;2023-06-22T14:16:02;30.80;39.00
14049;DHT22;7099;53.922;10.728;2023-06-22T14:20:08;30.80;39.20
14049;DHT22;7099;53.922;10.728;2023-06-22T14:24:14;30.80;40.00
14049;DHT22;7099;53.922;10.728;2023-06-22T14:28:19;30.80;39.60
14049;DHT22;7099;53.922;10.728;2023-06-22T14:32:27;30.90;39.40
14049;DHT22;7099;53.922;10.728;2023-06-22T14:36:34;30.90;39.40
14049;DHT22;7099;53.922;10.728;2023-06-22T14:40:40;30.50;39.10
14049;DHT22;7099;53.922;10.728;2023-06-22T14:45:14;30.10;39.60
14049;DHT22;7099;53.922;10.728;2023-06-22T14:49:20;29.80;39.80
14049;DHT22;7099;53.922;10.728;2023-06-22T14:53:26;29.70;40.50
14049;DHT22;7099;53.922;10.728;2023-06-22T14:57:32;29.50;40.70
14049;DHT22;7099;53.922;10.728;2023-06-22T15:01:37;29.70;40.90
14049;DHT22;7099;53.922;10.728;2023-06-22T15:05:46;29.70;40.90
14049;DHT22;7099;53.922;10.728;2023-06-22T15:09:51;29.50;41.30
14049;DHT22;7099;53.922;10.728;2023-06-22T15:13:58;29.40;41.10
14049;DHT22;7099;53.922;10.728;2023-06-22T15:18:05;29.30;41.20
14049;DHT22;7099;53.922;10.728;2023-06-22T15:22:11;29.20;40.80
14049;DHT22;7099;53.922;10.728;2023-06-22T15:26:17;28.90;40.50
14049;DHT22;7099;53.922;10.728;2023-06-22T15:30:22;28.80;40.80
14049;DHT22;7099;53.922;10.728;2023-06-22T15:34:28;28.50;40.50
14049;DHT22;7099;53.922;10.728;2023-06-22T15:38:34;28.30;40.80
14049;DHT22;7099;53.922;10.728;2023-06-22T15:42:39;28.20;41.30
14049;DHT22;7099;53.922;10.728;2023-06-22T15:46:45;28.00;41.60
14049;DHT22;7099;53.922;10.728;2023-06-22T15:50:50;27.80;42.20
14049;DHT22;7099;53.922;10.728;2023-06-22T15:54:56;27.70;42.70
14049;DHT22;7099;53.922;10.728;2023-06-22T15:59:03;27.50;43.30
14049;DHT22;7099;53.922;10.728;2023-06-22T16:03:08;27.40;44.10
14049;DHT22;7099;53.922;10.728;2023-06-22T16:07:14;27.20;44.70
14049;DHT22;7099;53.922;10.728;2023-06-22T16:11:20;27.00;45.30
14049;DHT22;7099;53.922;10.728;2023-06-22T16:15:25;26.90;45.90
14049;DHT22;7099;53.922;10.728;2023-06-22T16:19:31;26.80;46.50
14049;DHT22;7099;53.922;10.728;2023-06-22T16:23:36;26.70;47.30
14049;DHT22;7099;53.922;10.728;2023-06-22T16:27:44;26.70;47.60
14049;DHT22;7099;53.922;10.728;2023-06-22T16:31:50;26.50;48.50
14049;DHT22;7099;53.922;10.728;2023-06-22T16:35:55;26.40;47.70
14049;DHT22;7099;53.922;10.728;2023-06-22T16:40:01;26.20;47.60
14049;DHT22;7099;53.922;10.728;2023-06-22T16:44:06;26.00;47.70
14049;DHT22;7099;53.922;10.728;2023-06-22T16:48:12;26.00;47.60
14049;DHT22;7099;53.922;10.728;2023-06-22T16:52:18;25.90;47.80
14049;DHT22;7099;53.922;10.728;2023-06-22T16:56:25;25.70;47.10
14049;DHT22;7099;53.922;10.728;2023-06-22T17:00:31;25.50;47.40
14049;DHT22;7099;53.922;10.728;2023-06-22T17:04:37;25.30;47.60
14049;DHT22;7099;53.922;10.728;2023-06-22T17:08:43;25.20;47.60
14049;DHT22;7099;53.922;10.728;2023-06-22T17:12:49;25.10;47.40
14049;DHT22;7099;53.922;10.728;2023-06-22T17:16:58;25.00;47.70
14049;DHT22;7099;53.922;10.728;2023-06-22T17:21:05;25.00;47.60
14049;DHT22;7099;53.922;10.728;2023-06-22T17:25:12;24.90;47.70
14049;DHT22;7099;53.922;10.728;2023-06-22T17:29:19;24.80;47.80
14049;DHT22;7099;53.922;10.728;2023-06-22T17:33:25;24.70;47.90
14049;DHT22;7099;53.922;10.728;2023-06-22T17:37:47;24.70;47.90
14049;DHT22;7099;53.922;10.728;2023-06-22T17:41:56;24.70;48.20
14049;DHT22;7099;53.922;10.728;2023-06-22T17:46:01;24.60;47.70
14049;DHT22;7099;53.922;10.728;2023-06-22T17:50:08;24.50;47.60
14049;DHT22;7099;53.922;10.728;2023-06-22T17:54:14;24.50;47.50
14049;DHT22;7099;53.922;10.728;2023-06-22T17:58:19;24.40;47.30
14049;DHT22;7099;53.922;10.728;2023-06-22T18:02:25;24.40;47.50
14049;DHT22;7099;53.922;10.728;2023-06-22T18:06:37;24.40;47.50
14049;DHT22;7099;53.922;10.728;2023-06-22T18:10:47;24.30;47.40
14049;DHT22;7099;53.922;10.728;2023-06-22T18:14:53;24.30;47.60
14049;DHT22;7099;53.922;10.728;2023-06-22T18:19:00;24.20;47.70
14049;DHT22;7099;53.922;10.728;2023-06-22T18:23:09;24.20;47.70
14049;DHT22;7099;53.922;10.728;2023-06-22T18:27:15;24.00;47.60
14049;DHT22;7099;53.922;10.728;2023-06-22T18:31:23;24.00;47.60
14049;DHT22;7099;53.922;10.728;2023-06-22T18:35:29;24.00;47.60
14049;DHT22;7099;53.922;10.728;2023-06-22T18:39:42;24.00;47.60
14049;DHT22;7099;53.922;10.728;2023-06-22T18:43:52;23.90;47.70
14049;DHT22;7099;53.922;10.728;2023-06-22T18:48:05;23.70;48.00
14049;DHT22;7099;53.922;10.728;2023-06-22T18:52:16;23.70;48.30
14049;DHT22;7099;53.922;10.728;2023-06-22T18:56:22;23.70;48.40
14049;DHT22;7099;53.922;10.728;2023-06-22T19:00:30;23.50;48.40
14049;DHT22;7099;53.922;10.728;2023-06-22T19:04:37;23.50;48.40
14049;DHT22;7099;53.922;10.728;2023-06-22T19:09:13;23.50;48.40
14049;DHT22;7099;53.922;10.728;2023-06-22T19:17:34;23.40;49.30
14049;DHT22;7099;53.922;10.728;2023-06-22T19:21:39;23.30;49.70
14049;DHT22;7099;53.922;10.728;2023-06-22T19:25:45;23.30;49.90
14049;DHT22;7099;53.922;10.728;2023-06-22T19:29:52;23.20;50.20
14049;DHT22;7099;53.922;10.728;2023-06-22T19:34:01;23.20;50.20
14049;DHT22;7099;53.922;10.728;2023-06-22T19:38:10;23.20;50.30
14049;DHT22;7099;53.922;10.728;2023-06-22T19:42:15;23.20;50.30
14049;DHT22;7099;53.922;10.728;2023-06-22T19:46:31;23.20;50.50
14049;DHT22;7099;53.922;10.728;2023-06-22T19:50:39;23.10;50.90
14049;DHT22;7099;53.922;10.728;2023-06-22T19:54:47;23.10;50.80
14049;DHT22;7099;53.922;10.728;2023-06-22T19:58:53;23.00;51.10
14049;DHT22;7099;53.922;10.728;2023-06-22T20:02:58;23.00;51.40
14049;DHT22;7099;53.922;10.728;2023-06-22T20:07:06;23.00;51.70
14049;DHT22;7099;53.922;10.728;2023-06-22T20:11:12;23.00;52.20
14049;DHT22;7099;53.922;10.728;2023-06-22T20:15:22;22.90;52.50
14049;DHT22;7099;53.922;10.728;2023-06-22T20:19:37;22.90;53.20
14049;DHT22;7099;53.922;10.728;2023-06-22T20:23:47;22.80;53.80
14049;DHT22;7099;53.922;10.728;2023-06-22T20:27:53;22.80;54.10
14049;DHT22;7099;53.922;10.728;2023-06-22T20:36:12;22.80;55.10
14049;DHT22;7099;53.922;10.728;2023-06-22T20:40:22;22.80;55.10
14049;DHT22;7099;53.922;10.728;2023-06-22T20:44:35;22.70;55.60
14049;DHT22;7099;53.922;10.728;2023-06-22T20:48:40;22.60;55.90
14049;DHT22;7099;53.922;10.728;2023-06-22T20:52:46;22.60;56.40
14049;DHT22;7099;53.922;10.728;2023-06-22T20:56:52;22.60;56.90
14049;DHT22;7099;53.922;10.728;2023-06-22T21:00:57;22.60;57.40
14049;DHT22;7099;53.922;10.728;2023-06-22T21:05:06;22.60;57.90
14049;DHT22;7099;53.922;10.728;2023-06-22T21:09:12;22.60;58.60
14049;DHT22;7099;53.922;10.728;2023-06-22T21:13:17;22.50;59.10
14049;DHT22;7099;53.922;10.728;2023-06-22T21:17:23;22.40;59.40
14049;DHT22;7099;53.922;10.728;2023-06-22T21:21:31;22.50;60.40
14049;DHT22;7099;53.922;10.728;2023-06-22T21:25:36;22.50;61.00
14049;DHT22;7099;53.922;10.728;2023-06-22T21:29:42;22.40;62.40
14049;DHT22;7099;53.922;10.728;2023-06-22T21:33:47;22.40;63.40
14049;DHT22;7099;53.922;10.728;2023-06-22T21:37:53;22.40;64.00
14049;DHT22;7099;53.922;10.728;2023-06-22T21:41:59;22.30;65.10
14049;DHT22;7099;53.922;10.728;2023-06-22T21:46:04;22.30;65.60
14049;DHT22;7099;53.922;10.728;2023-06-22T21:50:10;22.20;66.10
14049;DHT22;7099;53.922;10.728;2023-06-22T21:54:16;22.20;67.00
14049;DHT22;7099;53.922;10.728;2023-06-22T21:58:21;22.20;67.30
14049;DHT22;7099;53.922;10.728;2023-06-22T22:02:31;22.10;67.60
14049;DHT22;7099;53.922;10.728;2023-06-22T22:06:36;22.00;68.50
14049;DHT22;7099;53.922;10.728;2023-06-22T22:10:42;21.90;68.70
14049;DHT22;7099;53.922;10.728;2023-06-22T22:14:47;21.90;68.90
14049;DHT22;7099;53.922;10.728;2023-06-22T22:18:53;21.90;69.20
14049;DHT22;7099;53.922;10.728;2023-06-22T22:22:58;21.90;69.20
14049;DHT22;7099;53.922;10.728;2023-06-22T22:27:04;21.80;69.40
14049;DHT22;7099;53.922;10.728;2023-06-22T22:31:10;21.80;69.50
14049;DHT22;7099;53.922;10.728;2023-06-22T22:35:15;21.70;69.30
14049;DHT22;7099;53.922;10.728;2023-06-22T22:39:33;21.50;69.60
14049;DHT22;7099;53.922;10.728;2023-06-22T22:43:41;21.50;70.70
14049;DHT22;7099;53.922;10.728;2023-06-22T22:47:47;21.50;69.90
14049;DHT22;7099;53.922;10.728;2023-06-22T22:51:52;21.40;70.80
14049;DHT22;7099;53.922;10.728;2023-06-22T22:55:58;21.40;71.30
14049;DHT22;7099;53.922;10.728;2023-06-22T23:00:04;21.40;71.40
14049;DHT22;7099;53.922;10.728;2023-06-22T23:04:17;21.40;71.70
14049;DHT22;7099;53.922;10.728;2023-06-22T23:08:23;21.40;72.00
14049;DHT22;7099;53.922;10.728;2023-06-22T23:12:29;21.30;72.20
14049;DHT22;7099;53.922;10.728;2023-06-22T23:16:34;21.20;70.30
14049;DHT22;7099;53.922;10.728;2023-06-22T23:20:40;21.10;69.30
14049;DHT22;7099;53.922;10.728;2023-06-22T23:24:46;21.00;69.10
14049;DHT22;7099;53.922;10.728;2023-06-22T23:28:51;20.90;68.60
14049;DHT22;7099;53.922;10.728;2023-06-22T23:32:57;20.90;68.90
14049;DHT22;7099;53.922;10.728;2023-06-22T23:37:02;20.90;68.80
14049;DHT22;7099;53.922;10.728;2023-06-22T23:41:08;20.90;69.10
14049;DHT22;7099;53.922;10.728;2023-06-22T23:45:16;20.80;69.60
14049;DHT22;7099;53.922;10.728;2023-06-22T23:49:24;20.80;69.90
14049;DHT22;7099;53.922;10.728;2023-06-22T23:53:30;20.70;69.90
14049;DHT22;7099;53.922;10.728;2023-06-22T23:57:36;20.70;70.20
